Time;durP1;ratioP1;P1;durP2;ratioP2;P2;SDS_P1;SDS_P2;PMS_P1;PMS_P2;Temp;Humidity;BMP_temperature;BMP_pressure;BME280_temperature;BME280_humidity;BME280_pressure;Samples;Min_cycle;Max_cycle;Signal;HPM_P1;HPM_P2
2022/01/08 00:01:34;;;;;;;90.53;31.77;;;-9.20;99.90;;;;;;5031440;28;20029;-79
2022/01/08 00:04:00;;;;;;;80.40;31.50;;;-9.20;99.90;;;;;;5031479;28;20053;-78
2022/01/08 00:06:25;;;;;;;69.87;30.80;;;-9.10;99.90;;;;;;5013677;28;20431;-79
2022/01/08 00:08:51;;;;;;;70.93;31.17;;;-9.10;99.90;;;;;;5013609;28;20028;-78
2022/01/08 00:11:24;;;;;;;76.43;34.03;;;-9.10;99.90;;;;;;5031301;28;20099;-78
2022/01/08 00:13:50;;;;;;;80.23;32.83;;;-9.10;99.90;;;;;;5031470;28;20338;-78
2022/01/08 00:16:15;;;;;;;98.33;39.30;;;-9.20;99.90;;;;;;5013558;28;20045;-78
2022/01/08 00:18:41;;;;;;;99.67;38.97;;;-9.30;99.90;;;;;;5031018;28;20021;-78
2022/01/08 00:21:06;;;;;;;94.57;37.83;;;-9.40;99.90;;;;;;5031227;28;20025;-78
2022/01/08 00:23:32;;;;;;;94.60;38.23;;;-9.40;99.90;;;;;;5029897;28;20473;-78
2022/01/08 00:26:00;;;;;;;116.87;40.87;;;-9.40;99.90;;;;;;5031153;28;20535;-78
2022/01/08 00:28:27;;;;;;;103.60;40.77;;;-9.50;99.90;;;;;;5031133;28;20071;-78
2022/01/08 00:30:53;;;;;;;105.47;39.73;;;-9.40;99.90;;;;;;5031314;28;20033;-78
2022/01/08 00:33:20;;;;;;;87.97;35.47;;;-9.50;99.90;;;;;;5029894;28;20032;-78
2022/01/08 00:35:46;;;;;;;95.17;37.50;;;-9.50;99.90;;;;;;5031048;28;20534;-78
2022/01/08 00:38:13;;;;;;;97.40;36.27;;;-9.50;99.90;;;;;;5029867;28;20124;-78
2022/01/08 00:40:38;;;;;;;86.07;34.73;;;-9.50;99.90;;;;;;5031016;28;20568;-78
2022/01/08 00:43:04;;;;;;;86.40;34.43;;;-9.60;99.90;;;;;;5034274;28;20026;-78
2022/01/08 00:45:30;;;;;;;97.43;33.60;;;-9.60;99.90;;;;;;5035119;28;20383;-78
2022/01/08 00:47:56;;;;;;;104.17;39.03;;;-9.70;99.90;;;;;;5034049;28;20636;-78
2022/01/08 00:50:21;;;;;;;110.00;41.40;;;-9.70;99.90;;;;;;5033590;28;20347;-78
2022/01/08 00:52:47;;;;;;;166.17;58.43;;;-9.70;99.90;;;;;;5033601;28;20038;-78
2022/01/08 00:55:13;;;;;;;73.40;25.83;;;-9.80;99.90;;;;;;5033603;28;20474;-78
2022/01/08 00:57:40;;;;;;;63.63;25.07;;;-9.90;99.90;;;;;;5034805;28;20076;-78
2022/01/08 01:00:08;;;;;;;48.20;22.43;;;-10.00;99.90;;;;;;5033449;28;20524;-78
2022/01/08 01:02:34;;;;;;;47.87;19.50;;;-10.00;99.90;;;;;;5033438;28;20112;-78
2022/01/08 01:04:59;;;;;;;53.73;23.50;;;-9.90;99.90;;;;;;5034641;28;20428;-78
2022/01/08 01:07:25;;;;;;;67.50;24.13;;;-9.80;99.90;;;;;;5034674;28;20025;-78
2022/01/08 01:09:51;;;;;;;60.40;24.30;;;-9.80;99.90;;;;;;5034471;28;20109;-79
2022/01/08 01:12:17;;;;;;;57.10;22.00;;;-9.80;99.90;;;;;;5033407;28;20407;-78
2022/01/08 01:14:42;;;;;;;73.40;27.73;;;-9.70;99.90;;;;;;5033199;28;20025;-78
2022/01/08 01:17:08;;;;;;;61.53;25.50;;;-9.60;99.90;;;;;;5033195;28;20060;-78
2022/01/08 01:19:35;;;;;;;69.83;24.47;;;-9.70;99.90;;;;;;5034369;28;20025;-78
2022/01/08 01:22:01;;;;;;;79.37;31.33;;;-9.60;99.90;;;;;;5034507;28;20010;-78
2022/01/08 01:24:28;;;;;;;81.13;30.47;;;-9.60;99.90;;;;;;5034239;28;20028;-78
2022/01/08 01:27:23;;;;;;;102.00;35.37;;;-9.70;99.90;;;;;;5034327;28;20387;-78
2022/01/08 01:46:59;;;;;;;133.00;48.53;;;-10.20;99.90;;;;;;5034475;28;20044;-80
2022/01/08 01:48:37;;;;;;;58.43;24.40;;;-10.20;99.90;;;;;;5034161;28;20087;-80
2022/01/08 01:51:03;;;;;;;58.20;24.67;;;-10.20;99.90;;;;;;5033802;28;20037;-80
2022/01/08 01:53:28;;;;;;;48.87;22.23;;;-10.20;99.90;;;;;;5033546;28;20060;-80
2022/01/08 01:55:54;;;;;;;42.67;20.40;;;-10.20;99.90;;;;;;5032472;28;20025;-80
2022/01/08 01:58:19;;;;;;;38.57;19.37;;;-10.20;99.90;;;;;;5032417;28;20026;-80
2022/01/08 02:00:49;;;;;;;76.27;28.20;;;-10.20;99.90;;;;;;5031578;28;20033;-80
2022/01/08 02:03:15;;;;;;;127.87;48.53;;;-10.10;99.90;;;;;;5033555;28;20033;-80
2022/01/08 02:05:40;;;;;;;187.90;71.57;;;-10.10;99.90;;;;;;5033485;28;20044;-80
2022/01/08 02:08:09;;;;;;;127.13;50.13;;;-10.10;99.90;;;;;;5015817;28;20060;-80
2022/01/08 02:10:35;;;;;;;71.17;28.90;;;-10.10;99.90;;;;;;5015509;28;20120;-80
2022/01/08 02:13:00;;;;;;;57.30;22.63;;;-10.10;99.90;;;;;;5015799;28;20111;-80
2022/01/08 02:15:26;;;;;;;41.27;20.37;;;-10.20;99.90;;;;;;5033337;28;20025;-79
2022/01/08 02:17:51;;;;;;;53.97;22.13;;;-10.10;99.90;;;;;;5033313;28;20025;-79
2022/01/08 02:20:17;;;;;;;79.20;28.83;;;-10.20;99.90;;;;;;5015497;28;20552;-79
2022/01/08 02:22:42;;;;;;;81.27;31.93;;;-10.20;99.90;;;;;;5033230;28;20418;-79
2022/01/08 02:25:08;;;;;;;122.27;44.70;;;-10.20;99.90;;;;;;5015393;28;20379;-79
2022/01/08 02:27:34;;;;;;;127.70;47.90;;;-10.10;99.90;;;;;;5033134;28;20034;-79
2022/01/08 02:29:59;;;;;;;96.07;36.67;;;-10.20;99.90;;;;;;5034025;28;20040;-79
2022/01/08 02:32:28;;;;;;;86.10;35.53;;;-10.20;99.90;;;;;;5030302;28;20071;-79
2022/01/08 02:34:55;;;;;;;125.43;42.80;;;-10.20;99.90;;;;;;5052865;28;20068;-80
2022/01/08 02:37:29;;;;;;;118.77;45.00;;;-10.20;99.90;;;;;;5052936;28;20422;-79
2022/01/08 02:39:56;;;;;;;156.03;61.07;;;-10.20;99.90;;;;;;5034797;28;20060;-79
2022/01/08 02:42:24;;;;;;;176.87;63.30;;;-10.30;99.90;;;;;;5034868;28;20079;-79
2022/01/08 02:44:49;;;;;;;136.17;49.63;;;-10.30;99.90;;;;;;5052754;28;20447;-79
2022/01/08 02:47:17;;;;;;;98.10;37.83;;;-10.30;99.90;;;;;;5052847;28;20104;-79
2022/01/08 02:49:43;;;;;;;54.83;22.90;;;-10.40;99.90;;;;;;5052427;28;20101;-79
2022/01/08 02:52:09;;;;;;;40.63;15.83;;;-10.50;99.90;;;;;;5024005;28;20479;-79
2022/01/08 02:54:35;;;;;;;39.60;17.07;;;-10.50;99.90;;;;;;5032572;28;20107;-80
2022/01/08 02:57:01;;;;;;;42.77;19.80;;;-10.50;99.90;;;;;;5014899;28;20054;-80
2022/01/08 02:59:27;;;;;;;56.23;22.77;;;-10.50;99.90;;;;;;5032432;28;20028;-79
2022/01/08 03:01:53;;;;;;;50.00;19.00;;;-10.40;99.90;;;;;;5014752;28;20497;-79
2022/01/08 03:04:20;;;;;;;31.97;15.00;;;-10.30;99.90;;;;;;5013980;28;20021;-80
2022/01/08 03:06:45;;;;;;;37.87;16.70;;;-10.20;99.90;;;;;;5014584;28;20017;-79
2022/01/08 03:09:11;;;;;;;39.10;16.60;;;-10.20;99.90;;;;;;5014492;28;20021;-80
2022/01/08 03:11:38;;;;;;;33.93;17.37;;;-10.10;99.90;;;;;;5032126;28;20044;-80
2022/01/08 03:14:07;;;;;;;36.67;17.60;;;-10.10;99.90;;;;;;5014587;28;20076;-80
2022/01/08 03:16:33;;;;;;;50.00;20.13;;;-10.00;99.90;;;;;;5014397;28;20017;-80
2022/01/08 03:18:59;;;;;;;52.27;23.20;;;-10.00;99.90;;;;;;5032171;28;20021;-79
2022/01/08 03:21:24;;;;;;;223.60;79.43;;;-10.10;99.90;;;;;;5032031;28;20024;-80
2022/01/08 03:24:00;;;;;;;120.70;43.67;;;-10.20;99.90;;;;;;5014354;28;20044;-80
2022/01/08 03:26:27;;;;;;;54.37;18.90;;;-10.30;99.90;;;;;;5014255;28;20478;-80
2022/01/08 03:28:54;;;;;;;53.77;21.40;;;-10.30;99.90;;;;;;5031941;28;20025;-80
2022/01/08 03:31:21;;;;;;;64.10;25.97;;;-10.40;99.90;;;;;;5031847;28;20029;-80
2022/01/08 03:33:48;;;;;;;89.73;35.10;;;-10.40;99.90;;;;;;5014144;28;20116;-79
2022/01/08 03:36:15;;;;;;;197.23;66.87;;;-10.50;99.90;;;;;;5031840;28;20025;-79
2022/01/08 03:38:41;;;;;;;217.27;74.80;;;-10.50;99.90;;;;;;5031674;28;20036;-79
2022/01/08 03:41:07;;;;;;;94.23;34.80;;;-10.50;99.90;;;;;;5014057;28;20117;-79
2022/01/08 03:43:33;;;;;;;101.03;35.30;;;-10.60;99.90;;;;;;5031774;28;20427;-79
2022/01/08 03:46:01;;;;;;;158.93;53.37;;;-10.60;99.90;;;;;;5031555;28;20116;-79
2022/01/08 03:48:29;;;;;;;196.67;66.90;;;-10.60;99.90;;;;;;5031669;28;20053;-79
2022/01/08 03:50:56;;;;;;;246.43;79.37;;;-10.60;99.90;;;;;;5031538;28;20048;-79
2022/01/08 03:53:23;;;;;;;313.50;105.47;;;-10.50;99.90;;;;;;5013910;28;20020;-79
2022/01/08 03:55:49;;;;;;;180.43;61.23;;;-10.50;99.90;;;;;;5013715;28;20029;-79
2022/01/08 03:58:15;;;;;;;82.23;32.70;;;-10.50;99.90;;;;;;5031556;28;20021;-79
2022/01/08 04:00:40;;;;;;;51.83;19.60;;;-10.50;99.90;;;;;;5013642;28;20383;-79
2022/01/08 04:03:06;;;;;;;32.70;14.47;;;-10.50;99.90;;;;;;5031564;28;20071;-79
2022/01/08 04:05:32;;;;;;;50.40;21.40;;;-10.50;99.90;;;;;;5013716;28;20030;-80
2022/01/08 04:07:57;;;;;;;64.17;26.33;;;-10.40;99.90;;;;;;5013662;28;20119;-80
2022/01/08 04:10:23;;;;;;;39.07;16.93;;;-10.40;99.90;;;;;;5031336;28;20487;-80
2022/01/08 04:12:54;;;;;;;32.23;15.03;;;-10.40;99.90;;;;;;5031610;28;20025;-80
2022/01/08 04:15:43;;;;;;;25.80;11.40;;;-10.30;99.90;;;;;;5031296;28;20472;-79
2022/01/08 04:18:07;;;;;;;23.23;11.00;;;-10.30;99.90;;;;;;5030629;28;20025;-79
2022/01/08 04:20:38;;;;;;;26.40;12.97;;;-10.30;99.90;;;;;;5031193;28;20029;-80
2022/01/08 04:23:04;;;;;;;22.00;12.60;;;-10.20;99.90;;;;;;5013849;28;20373;-80
2022/01/08 04:25:31;;;;;;;60.40;23.10;;;-10.20;99.90;;;;;;5013436;28;20028;-79
2022/01/08 04:27:56;;;;;;;90.50;35.60;;;-10.20;99.90;;;;;;5013650;28;20517;-80
2022/01/08 04:30:23;;;;;;;88.00;37.30;;;-10.30;99.90;;;;;;5030871;28;20041;-80
2022/01/08 04:32:48;;;;;;;121.80;44.80;;;-10.30;99.90;;;;;;5031160;28;20037;-80
2022/01/08 04:35:14;;;;;;;83.70;35.27;;;-10.30;99.90;;;;;;5031112;28;20411;-79
2022/01/08 04:37:40;;;;;;;66.70;26.50;;;-10.30;99.90;;;;;;5013301;28;20025;-80
2022/01/08 04:40:06;;;;;;;36.17;16.00;;;-10.30;99.90;;;;;;5031074;28;20021;-80
2022/01/08 04:42:31;;;;;;;37.33;16.67;;;-10.40;99.90;;;;;;5013286;28;20025;-79
2022/01/08 04:44:57;;;;;;;37.03;16.30;;;-10.30;99.90;;;;;;5031159;28;20030;-79
2022/01/08 04:47:23;;;;;;;32.37;15.47;;;-10.30;99.90;;;;;;5013620;28;20383;-79
2022/01/08 04:49:48;;;;;;;31.30;15.30;;;-10.30;99.90;;;;;;5013107;28;20041;-79
2022/01/08 04:52:14;;;;;;;30.00;15.30;;;-10.20;99.90;;;;;;5013655;28;20386;-79
2022/01/08 04:54:40;;;;;;;45.53;20.23;;;-10.20;99.90;;;;;;5030870;28;20428;-79
2022/01/08 04:57:05;;;;;;;73.70;29.50;;;-10.20;99.90;;;;;;5013212;28;20022;-79
2022/01/08 04:59:31;;;;;;;76.93;28.77;;;-10.30;99.90;;;;;;5030814;28;20058;-79
2022/01/08 05:01:56;;;;;;;72.07;27.20;;;-10.30;99.90;;;;;;5013480;28;20026;-80
2022/01/08 05:04:22;;;;;;;74.50;26.93;;;-10.40;99.90;;;;;;5013115;28;20501;-79
2022/01/08 05:06:48;;;;;;;62.33;25.47;;;-10.40;99.90;;;;;;5030900;28;20029;-80
2022/01/08 05:09:13;;;;;;;71.07;27.43;;;-10.50;99.90;;;;;;5030822;28;20422;-80
2022/01/08 05:11:39;;;;;;;98.23;33.83;;;-10.50;99.90;;;;;;5013236;28;20045;-80
2022/01/08 05:14:05;;;;;;;167.47;49.63;;;-10.60;99.90;;;;;;5030799;28;20033;-80
2022/01/08 05:16:31;;;;;;;146.67;46.50;;;-10.60;99.90;;;;;;5013028;28;20029;-80
2022/01/08 05:18:57;;;;;;;88.23;30.87;;;-10.60;99.90;;;;;;5030695;28;20029;-80
2022/01/08 05:21:29;;;;;;;37.70;16.20;;;-10.60;99.90;;;;;;5030649;28;20018;-80
2022/01/08 05:23:56;;;;;;;28.10;11.88;;;-10.60;99.90;;;;;;5012950;28;20022;-80
2022/01/08 05:26:22;;;;;;;26.77;12.33;;;-10.50;99.90;;;;;;5030702;28;20052;-80
2022/01/08 05:28:48;;;;;;;26.87;12.80;;;-10.50;99.90;;;;;;5033134;28;20025;-80
2022/01/08 05:31:16;;;;;;;25.33;12.97;;;-10.50;99.90;;;;;;5034106;28;20087;-80
2022/01/08 05:33:41;;;;;;;46.47;17.03;;;-10.40;99.90;;;;;;5016431;28;20166;-80
2022/01/08 05:36:07;;;;;;;41.67;17.93;;;-10.40;99.90;;;;;;5034439;28;20077;-80
2022/01/08 05:38:33;;;;;;;46.37;18.63;;;-10.40;99.90;;;;;;5049379;28;20048;-79
2022/01/08 05:40:58;;;;;;;64.87;23.13;;;-10.40;99.90;;;;;;5034030;28;20069;-79
2022/01/08 05:43:24;;;;;;;37.87;15.87;;;-10.30;99.90;;;;;;5016191;28;20029;-79
2022/01/08 05:45:50;;;;;;;49.83;18.27;;;-10.30;99.90;;;;;;5016219;28;20032;-79
2022/01/08 05:48:15;;;;;;;42.70;19.10;;;-10.30;99.90;;;;;;5016117;28;20032;-79
2022/01/08 05:50:41;;;;;;;38.17;15.53;;;-10.30;99.90;;;;;;5016243;28;20454;-79
2022/01/08 05:53:07;;;;;;;45.30;18.23;;;-10.30;99.90;;;;;;5033932;28;20018;-79
2022/01/08 05:55:32;;;;;;;57.63;20.97;;;-10.30;99.90;;;;;;5033705;28;20072;-79
2022/01/08 05:57:58;;;;;;;47.20;21.47;;;-10.30;99.90;;;;;;5033711;28;20021;-80
2022/01/08 06:00:24;;;;;;;64.37;24.73;;;-10.30;99.90;;;;;;5015890;28;20025;-79
2022/01/08 06:02:49;;;;;;;63.53;26.33;;;-10.40;99.90;;;;;;5033978;28;20025;-80
2022/01/08 06:05:15;;;;;;;67.07;27.90;;;-10.40;99.90;;;;;;5015772;28;20025;-79
2022/01/08 06:07:40;;;;;;;68.23;24.77;;;-10.40;99.90;;;;;;5048859;28;20048;-79
2022/01/08 06:10:06;;;;;;;68.53;26.27;;;-10.40;99.90;;;;;;5033403;28;20033;-79
2022/01/08 06:12:32;;;;;;;75.00;28.13;;;-10.30;99.90;;;;;;5015871;28;20033;-79
2022/01/08 06:14:58;;;;;;;106.43;37.20;;;-10.40;99.90;;;;;;5033394;28;20017;-80
2022/01/08 06:17:24;;;;;;;86.47;29.70;;;-10.40;99.90;;;;;;5033413;28;20025;-79
2022/01/08 06:19:49;;;;;;;87.23;32.47;;;-10.40;99.90;;;;;;5013465;28;20018;-79
2022/01/08 06:22:15;;;;;;;42.37;17.60;;;-10.40;99.90;;;;;;5012225;28;20029;-79
2022/01/08 06:24:41;;;;;;;67.23;26.50;;;-10.30;99.90;;;;;;5013378;28;20101;-79
2022/01/08 06:27:06;;;;;;;59.10;20.13;;;-10.30;99.90;;;;;;5033513;28;20028;-79
2022/01/08 06:29:32;;;;;;;58.20;25.30;;;-10.30;99.90;;;;;;5021790;28;20060;-80
2022/01/08 06:31:58;;;;;;;62.37;22.80;;;-10.20;99.90;;;;;;5038602;28;20017;-79
2022/01/08 06:34:23;;;;;;;44.00;21.17;;;-10.20;99.90;;;;;;5019176;28;20368;-79
2022/01/08 06:36:49;;;;;;;56.10;22.17;;;-10.10;99.90;;;;;;5036867;28;20025;-80
2022/01/08 06:39:16;;;;;;;48.10;19.10;;;-10.10;99.90;;;;;;5038041;28;20498;-79
2022/01/08 06:41:42;;;;;;;27.27;13.80;;;-10.00;99.90;;;;;;5052214;28;20389;-80
2022/01/08 06:44:07;;;;;;;22.87;10.77;;;-9.90;99.90;;;;;;5040245;28;20094;-80
2022/01/08 06:46:33;;;;;;;31.47;15.27;;;-9.80;99.90;;;;;;5025206;28;20037;-78
2022/01/08 06:48:58;;;;;;;73.63;27.33;;;-9.70;99.90;;;;;;5036079;28;20026;-79
2022/01/08 06:51:24;;;;;;;181.77;51.33;;;-9.60;99.90;;;;;;5040875;28;20037;-80
2022/01/08 06:53:50;;;;;;;231.23;70.63;;;-9.50;99.90;;;;;;5038021;28;20573;-79
2022/01/08 06:56:17;;;;;;;278.83;81.13;;;-9.50;99.90;;;;;;5009221;28;20017;-79
2022/01/08 06:58:43;;;;;;;238.80;72.53;;;-9.40;99.90;;;;;;5040939;28;20462;-79
2022/01/08 07:01:09;;;;;;;267.17;81.63;;;-9.40;99.90;;;;;;5041302;28;20103;-80
2022/01/08 07:03:35;;;;;;;224.70;69.17;;;-9.30;99.90;;;;;;5023364;28;20113;-79
2022/01/08 07:06:01;;;;;;;232.87;70.37;;;-9.20;99.90;;;;;;5026581;28;20095;-79
2022/01/08 07:08:26;;;;;;;234.20;72.10;;;-9.20;99.90;;;;;;5054082;28;20017;-79
2022/01/08 07:10:52;;;;;;;268.07;80.17;;;-9.20;99.90;;;;;;5021266;28;20114;-79
2022/01/08 07:13:17;;;;;;;189.37;66.43;;;-9.10;99.90;;;;;;5026620;28;20032;-79
2022/01/08 07:15:43;;;;;;;231.90;76.83;;;-9.10;99.90;;;;;;5040132;28;20100;-79
2022/01/08 07:18:08;;;;;;;254.63;80.80;;;-9.00;99.90;;;;;;5020816;28;20022;-78
2022/01/08 07:20:34;;;;;;;220.77;74.43;;;-8.90;99.90;;;;;;5039614;28;20021;-77
2022/01/08 07:23:00;;;;;;;246.10;83.40;;;-8.80;99.90;;;;;;5036020;28;20021;-78
2022/01/08 07:25:25;;;;;;;369.50;117.47;;;-8.80;99.90;;;;;;5036266;28;20018;-77
2022/01/08 07:27:51;;;;;;;334.40;108.53;;;-8.70;99.90;;;;;;5027001;28;20013;-77
2022/01/08 07:30:17;;;;;;;367.13;117.60;;;-8.60;99.90;;;;;;5031205;28;20057;-77
2022/01/08 07:32:45;;;;;;;254.53;95.43;;;-8.40;99.90;;;;;;5036165;28;20025;-78
2022/01/08 07:35:12;;;;;;;341.87;113.97;;;-8.30;99.90;;;;;;5039769;28;20112;-78
2022/01/08 07:37:38;;;;;;;387.47;131.10;;;-8.20;99.90;;;;;;5036364;28;20470;-78
2022/01/08 07:40:05;;;;;;;459.37;154.87;;;-8.00;99.90;;;;;;5038782;28;20107;-78
2022/01/08 07:42:30;;;;;;;419.83;135.23;;;-7.90;99.90;;;;;;5034922;28;20033;-78
2022/01/08 07:44:56;;;;;;;408.33;144.17;;;-7.70;99.90;;;;;;5023630;28;20402;-78
2022/01/08 07:47:22;;;;;;;402.00;137.70;;;-7.70;99.90;;;;;;5029992;28;20026;-78
2022/01/08 07:49:47;;;;;;;278.30;99.83;;;-7.50;99.90;;;;;;5021382;28;20033;-77
2022/01/08 07:52:13;;;;;;;325.90;116.27;;;-7.40;99.90;;;;;;5031783;28;20063;-77
2022/01/08 07:54:38;;;;;;;310.30;111.93;;;-7.30;99.90;;;;;;5030638;28;20468;-78
2022/01/08 07:57:04;;;;;;;356.97;128.63;;;-7.20;99.90;;;;;;5031236;28;20045;-78
2022/01/08 07:59:30;;;;;;;446.53;155.37;;;-7.10;99.90;;;;;;5013642;28;20025;-77
2022/01/08 08:01:55;;;;;;;350.03;123.83;;;-7.00;99.90;;;;;;5030764;28;20029;-77
2022/01/08 08:04:21;;;;;;;286.03;105.60;;;-6.90;99.90;;;;;;5031789;28;20037;-78
2022/01/08 08:06:47;;;;;;;329.10;121.30;;;-6.80;99.90;;;;;;5029934;28;20018;-77
2022/01/08 08:09:14;;;;;;;310.37;123.23;;;-6.70;99.90;;;;;;5012204;28;20017;-78
2022/01/08 08:11:40;;;;;;;320.17;124.27;;;-6.60;99.90;;;;;;5029205;28;20124;-77
2022/01/08 08:14:05;;;;;;;324.93;123.83;;;-6.40;99.90;;;;;;5030399;28;20104;-77
2022/01/08 08:16:31;;;;;;;334.50;124.27;;;-6.30;99.90;;;;;;5030716;28;20040;-77
2022/01/08 08:18:56;;;;;;;271.40;105.60;;;-6.20;99.90;;;;;;5030867;28;20064;-77
2022/01/08 08:21:22;;;;;;;214.47;87.40;;;-6.10;99.90;;;;;;5030941;28;20033;-77
2022/01/08 08:23:47;;;;;;;221.70;80.37;;;-6.00;99.90;;;;;;5031089;28;20151;-77
2022/01/08 08:26:13;;;;;;;123.73;52.23;;;-5.90;99.90;;;;;;5031320;28;20383;-77
2022/01/08 08:28:39;;;;;;;96.27;39.80;;;-5.80;99.90;;;;;;5032225;28;20495;-77
2022/01/08 08:31:04;;;;;;;74.20;33.00;;;-5.70;99.90;;;;;;5041183;28;20044;-77
2022/01/08 08:33:30;;;;;;;80.97;36.28;;;-5.60;99.90;;;;;;5051037;28;20024;-77
2022/01/08 08:35:56;;;;;;;74.32;28.52;;;-5.50;99.90;;;;;;5041631;28;20412;-77
2022/01/08 08:38:21;;;;;;;72.65;27.58;;;-5.30;99.90;;;;;;5028956;28;20109;-77
2022/01/08 08:40:47;;;;;;;68.65;27.60;;;-5.20;99.90;;;;;;5030493;28;20053;-77
2022/01/08 08:43:13;;;;;;;45.50;20.98;;;-5.10;99.90;;;;;;5012780;28;20399;-77
2022/01/08 08:45:39;;;;;;;48.00;20.77;;;-4.90;99.90;;;;;;5031024;28;20044;-77
2022/01/08 08:48:05;;;;;;;48.88;21.52;;;-4.80;99.90;;;;;;5013119;28;20025;-77
2022/01/08 08:50:31;;;;;;;109.18;46.50;;;-4.70;99.90;;;;;;5045640;28;20068;-77
2022/01/08 08:52:56;;;;;;;181.38;80.70;;;-4.60;99.90;;;;;;5046065;28;20093;-77
2022/01/08 08:55:22;;;;;;;153.23;68.60;;;-4.40;99.90;;;;;;5046354;28;20068;-77
2022/01/08 08:57:48;;;;;;;126.10;57.35;;;-4.30;99.90;;;;;;5046280;28;20079;-77
2022/01/08 09:00:14;;;;;;;75.35;34.63;;;-4.10;99.90;;;;;;5046190;28;20018;-77
2022/01/08 09:02:40;;;;;;;58.47;26.33;;;-4.00;99.90;;;;;;5031655;28;20029;-77
2022/01/08 09:05:06;;;;;;;57.85;26.65;;;-3.90;99.90;;;;;;5034181;28;20048;-77
2022/01/08 09:07:34;;;;;;;53.60;26.05;;;-3.80;98.40;;;;;;5016830;28;20045;-77
2022/01/08 09:10:01;;;;;;;213.10;80.38;;;-3.70;96.60;;;;;;5016755;28;20391;-77
2022/01/08 09:12:27;;;;;;;209.43;80.90;;;-3.60;97.20;;;;;;5036857;28;20030;-77
2022/01/08 09:14:52;;;;;;;217.75;85.65;;;-3.50;98.80;;;;;;5036356;28;20078;-77
2022/01/08 09:17:18;;;;;;;351.52;135.15;;;-3.50;97.50;;;;;;5054426;28;20021;-77
2022/01/08 09:19:44;;;;;;;266.10;101.75;;;-3.40;95.50;;;;;;5054200;28;20025;-77
2022/01/08 09:22:12;;;;;;;250.63;80.38;;;-3.30;93.70;;;;;;5054376;28;20471;-77
2022/01/08 09:24:38;;;;;;;99.75;36.72;;;-3.20;91.80;;;;;;5026921;28;20536;-77
2022/01/08 09:27:04;;;;;;;198.00;69.38;;;-3.10;90.00;;;;;;5032293;28;20033;-77
2022/01/08 09:29:30;;;;;;;246.93;94.22;;;-3.00;89.70;;;;;;5032630;28;20036;-77
2022/01/08 09:31:56;;;;;;;137.05;53.50;;;-3.00;88.10;;;;;;5015362;28;20030;-77
2022/01/08 09:34:21;;;;;;;116.72;38.80;;;-2.90;88.00;;;;;;5033162;28;20036;-77
2022/01/08 09:36:48;;;;;;;183.20;76.38;;;-2.90;84.00;;;;;;5032987;28;20029;-79
2022/01/08 09:39:14;;;;;;;207.88;89.40;;;-2.80;84.80;;;;;;5014130;28;20032;-79
2022/01/08 09:41:39;;;;;;;121.97;48.65;;;-2.70;84.60;;;;;;5013127;28;20487;-79
2022/01/08 09:44:06;;;;;;;88.75;34.60;;;-2.70;82.60;;;;;;5030812;28;20037;-79
2022/01/08 09:46:31;;;;;;;68.35;27.90;;;-2.60;81.00;;;;;;5031186;28;20029;-79
2022/01/08 09:48:57;;;;;;;89.13;38.22;;;-2.50;80.40;;;;;;5012934;28;20018;-79
2022/01/08 09:51:23;;;;;;;62.17;28.60;;;-2.50;79.20;;;;;;5012923;28;20084;-79
2022/01/08 09:53:49;;;;;;;157.13;61.55;;;-2.40;79.40;;;;;;5046357;28;20018;-79
2022/01/08 09:56:14;;;;;;;87.75;33.83;;;-2.40;80.80;;;;;;5013934;28;20079;-79
2022/01/08 09:58:40;;;;;;;97.38;38.28;;;-2.30;80.90;;;;;;5031701;28;20030;-79
2022/01/08 10:01:26;;;;;;;66.20;30.77;;;-2.20;82.90;;;;;;5011655;28;20083;-79
2022/01/08 10:03:52;;;;;;;58.80;26.65;;;-2.20;83.10;;;;;;5030486;28;20021;-79
2022/01/08 10:06:27;;;;;;;56.67;26.80;;;-2.20;79.80;;;;;;5015197;28;20026;-79
2022/01/08 10:08:53;;;;;;;53.85;23.85;;;-2.10;79.60;;;;;;5015808;28;20032;-79
2022/01/08 10:11:20;;;;;;;62.28;27.30;;;-2.20;77.60;;;;;;5015655;28;20029;-79
2022/01/08 10:13:48;;;;;;;59.75;24.55;;;-2.10;79.60;;;;;;5015490;28;20021;-79
2022/01/08 10:19:02;;;;;;;54.28;24.55;;;-2.20;80.40;;;;;;5033730;28;20040;-79
2022/01/08 10:21:30;;;;;;;46.60;21.08;;;-2.20;79.00;;;;;;5019454;28;20470;-79
2022/01/08 10:23:58;;;;;;;46.80;21.42;;;-2.20;78.60;;;;;;5035246;28;20025;-79
2022/01/08 10:26:31;;;;;;;52.58;22.13;;;-2.30;79.10;;;;;;5053139;28;20024;-79
2022/01/08 10:28:59;;;;;;;46.03;20.50;;;-2.30;79.00;;;;;;5020983;28;20144;-79
2022/01/08 10:31:32;;;;;;;48.13;21.85;;;-2.30;79.90;;;;;;5033014;28;20037;-79
2022/01/08 10:34:01;;;;;;;68.20;27.92;;;-2.30;79.30;;;;;;5015376;28;20395;-79
2022/01/08 10:36:30;;;;;;;51.45;22.63;;;-2.20;79.20;;;;;;5015207;28;20018;-80
2022/01/08 10:38:58;;;;;;;58.72;26.73;;;-2.30;79.60;;;;;;5015203;28;20078;-80
2022/01/08 10:41:25;;;;;;;62.88;26.80;;;-2.20;80.40;;;;;;5033578;28;20013;-79
2022/01/08 10:44:10;;;;;;;47.83;20.83;;;-2.20;81.40;;;;;;5034854;28;20040;-80
2022/01/08 10:46:36;;;;;;;52.42;23.10;;;-2.10;81.10;;;;;;5052681;28;20033;-79
2022/01/08 10:49:03;;;;;;;43.65;21.60;;;-2.00;80.80;;;;;;5052814;28;20021;-79
2022/01/08 10:51:37;;;;;;;52.40;22.33;;;-2.00;79.70;;;;;;5034582;28;20068;-79
2022/01/08 10:54:05;;;;;;;38.70;18.85;;;-1.90;80.00;;;;;;5052727;28;20021;-79
2022/01/08 10:56:41;;;;;;;36.70;16.00;;;-1.80;80.00;;;;;;5034603;28;20025;-79
2022/01/08 10:59:18;;;;;;;31.50;15.85;;;-1.80;78.10;;;;;;5067889;28;20025;-79
2022/01/08 11:01:52;;;;;;;29.15;14.05;;;-1.70;78.40;;;;;;5034556;28;20029;-79
2022/01/08 11:04:38;;;;;;;29.90;14.52;;;-1.70;76.50;;;;;;5030793;28;20021;-79
2022/01/08 11:07:05;;;;;;;37.33;17.00;;;-1.60;77.40;;;;;;5014817;28;20364;-79
2022/01/08 11:09:32;;;;;;;35.25;16.42;;;-1.60;76.70;;;;;;5014517;28;20029;-79
2022/01/08 11:12:00;;;;;;;39.72;17.33;;;-1.60;77.50;;;;;;5014563;28;20467;-79
2022/01/08 11:17:20;;;;;;;;;;;-1.50;79.90;;;;;;5033064;28;20045;-77
2022/01/08 11:19:49;;;;;;;30.35;14.55;;;-1.50;78.10;;;;;;5032138;28;19905;-77
2022/01/08 11:22:18;;;;;;;34.65;17.42;;;-1.50;77.30;;;;;;5032247;28;20029;-77
2022/01/08 11:25:00;;;;;;;33.63;14.70;;;-1.50;76.70;;;;;;5032268;28;20024;-77
2022/01/08 11:27:45;;;;;;;28.33;15.15;;;-1.50;77.50;;;;;;5031864;28;20029;-77
2022/01/08 11:30:24;;;;;;;28.85;15.13;;;-1.50;78.30;;;;;;5031956;28;20030;-77
2022/01/08 11:32:52;;;;;;;29.10;15.45;;;-1.50;78.00;;;;;;5046997;28;20483;-77
2022/01/08 11:35:19;;;;;;;38.50;18.92;;;-1.50;78.30;;;;;;5014045;28;20021;-77
2022/01/08 11:37:47;;;;;;;87.03;32.75;;;-1.50;78.20;;;;;;5014152;28;20415;-77
2022/01/08 11:40:15;;;;;;;54.00;21.13;;;-1.50;77.50;;;;;;5014057;28;20025;-77
2022/01/08 11:42:41;;;;;;;35.40;16.55;;;-1.50;77.90;;;;;;5013897;28;20033;-77
2022/01/08 11:45:11;;;;;;;62.92;25.77;;;-1.50;78.80;;;;;;5013881;28;20380;-77
2022/01/08 11:47:39;;;;;;;45.75;20.63;;;-1.50;78.90;;;;;;5030969;28;20487;-77
2022/01/08 11:50:06;;;;;;;191.95;61.67;;;-1.50;78.90;;;;;;5012363;28;20029;-77
2022/01/08 11:52:31;;;;;;;40.35;20.23;;;-1.50;80.00;;;;;;5012422;28;20018;-77
2022/01/08 11:54:57;;;;;;;57.92;23.92;;;-1.50;78.70;;;;;;5029684;28;20027;-77
2022/01/08 11:57:25;;;;;;;41.28;19.65;;;-1.50;78.90;;;;;;5012683;28;20044;-77
2022/01/08 11:59:59;;;;;;;74.78;29.63;;;-1.50;79.90;;;;;;5013533;28;20040;-77
2022/01/08 12:02:42;;;;;;;33.33;17.55;;;-1.50;80.80;;;;;;5013421;28;20017;-77
2022/01/08 12:05:11;;;;;;;38.10;19.80;;;-1.60;79.90;;;;;;5013559;28;20040;-77
2022/01/08 12:07:47;;;;;;;91.88;40.60;;;-1.50;79.80;;;;;;5031366;28;20025;-77
2022/01/08 12:10:20;;;;;;;52.00;22.48;;;-1.50;80.30;;;;;;5031183;28;20494;-77
2022/01/08 12:12:52;;;;;;;45.58;21.88;;;-1.60;80.40;;;;;;5030655;28;20509;-77
2022/01/08 12:15:40;;;;;;;45.15;19.25;;;-1.60;80.80;;;;;;5013147;28;20033;-77
2022/01/08 12:18:07;;;;;;;36.38;17.02;;;-1.60;81.40;;;;;;5052909;28;20413;-77
2022/01/08 12:20:40;;;;;;;71.82;30.38;;;-1.60;81.30;;;;;;5018637;28;20048;-76
2022/01/08 12:23:39;;;;;;;52.25;25.45;;;-1.60;82.60;;;;;;5018212;28;20018;-77
2022/01/08 12:26:09;;;;;;;68.85;24.65;;;-1.60;82.60;;;;;;5014307;28;20035;-80
2022/01/08 12:28:47;;;;;;;59.10;23.63;;;-1.50;83.50;;;;;;5022765;28;20029;-79
2022/01/08 12:31:49;;;;;;;56.20;24.83;;;-1.50;82.30;;;;;;5042126;28;20044;-81
2022/01/08 12:34:28;;;;;;;278.00;99.20;;;-1.50;83.10;;;;;;5039759;28;20021;-79
2022/01/08 12:36:58;;;;;;;596.40;230.32;;;-1.50;83.60;;;;;;5057752;28;20025;-79
2022/01/08 12:39:43;;;;;;;285.75;83.55;;;-1.50;84.70;;;;;;5043149;28;20022;-79
2022/01/08 12:42:24;;;;;;;107.35;33.75;;;-1.50;83.30;;;;;;5059098;28;20494;-79
2022/01/08 12:44:55;;;;;;;80.72;28.63;;;-1.50;83.20;;;;;;5060632;28;20386;-79